createdAt,value
2022-08-03T00:00:26.300Z,2.40
2022-08-03T00:02:53.425Z,2.85
2022-08-03T00:05:20.259Z,2.50
2022-08-03T00:07:46.965Z,2.50
2022-08-03T00:10:17.134Z,2.15
2022-08-03T00:12:44.108Z,2.10
2022-08-03T00:15:15.050Z,2.08
2022-08-03T00:17:52.472Z,1.95
2022-08-03T00:20:20.025Z,1.77
2022-08-03T00:22:46.652Z,1.92
2022-08-03T00:25:13.414Z,1.95
2022-08-03T00:27:40.021Z,2.25
2022-08-03T00:30:07.526Z,2.08
2022-08-03T00:32:34.134Z,2.00
2022-08-03T00:35:00.847Z,2.03
2022-08-03T00:37:41.634Z,2.25
2022-08-03T00:40:19.048Z,1.65
2022-08-03T00:42:56.748Z,2.05
2022-08-03T00:45:28.029Z,1.92
2022-08-03T00:47:55.651Z,1.60
2022-08-03T00:50:24.852Z,1.63
2022-08-03T00:52:59.384Z,1.58
2022-08-03T00:55:26.668Z,2.20
2022-08-03T00:57:54.061Z,1.50
2022-08-03T01:00:23.514Z,1.60
2022-08-03T01:02:51.502Z,1.65
2022-08-03T01:05:19.213Z,1.58
2022-08-03T01:08:20.348Z,2.03
2022-08-03T01:10:54.378Z,1.85
2022-08-03T01:14:04.443Z,1.65
2022-08-03T01:16:36.608Z,1.80
2022-08-03T01:19:41.582Z,1.83
2022-08-03T01:22:30.073Z,1.77
2022-08-03T01:25:09.968Z,1.55
2022-08-03T01:27:39.371Z,1.73
2022-08-03T01:30:08.431Z,1.50
2022-08-03T01:32:59.920Z,2.05
2022-08-03T01:35:36.705Z,1.35
2022-08-03T01:38:15.105Z,1.65
2022-08-03T01:40:44.492Z,1.52
2022-08-03T01:44:28.173Z,1.40
2022-08-03T01:46:04.668Z,1.48
2022-08-03T01:48:32.658Z,1.50
2022-08-03T01:51:00.036Z,1.75
2022-08-03T01:53:27.989Z,1.73
2022-08-03T01:55:57.312Z,1.50
2022-08-03T01:58:24.905Z,1.75
2022-08-03T02:00:53.011Z,1.50
2022-08-03T02:03:23.195Z,1.10
2022-08-03T02:06:01.215Z,1.50
2022-08-03T02:08:43.116Z,1.20
2022-08-03T02:11:09.823Z,1.35
2022-08-03T02:13:36.826Z,1.52
2022-08-03T02:16:04.954Z,1.70
2022-08-03T02:18:35.119Z,1.33
2022-08-03T02:21:10.587Z,1.30
2022-08-03T02:23:38.925Z,1.20
2022-08-03T02:26:09.503Z,1.40
2022-08-03T02:28:39.975Z,1.73
2022-08-03T02:31:16.673Z,1.17
2022-08-03T02:33:48.974Z,1.25
2022-08-03T02:36:19.886Z,1.27
2022-08-03T02:38:51.116Z,1.60
2022-08-03T02:41:22.677Z,1.48
2022-08-03T02:44:06.472Z,1.70
2022-08-03T02:46:38.553Z,1.80
2022-08-03T02:49:40.424Z,2.05
2022-08-03T02:51:55.549Z,1.60
2022-08-03T02:54:24.810Z,1.38
2022-08-03T02:56:53.868Z,1.52
2022-08-03T02:59:21.213Z,1.40
2022-08-03T03:01:48.878Z,1.42
2022-08-03T03:04:17.074Z,2.00
2022-08-03T03:06:44.258Z,1.73
2022-08-03T03:09:14.764Z,1.25
2022-08-03T03:11:43.089Z,1.70
2022-08-03T03:14:13.327Z,1.77
2022-08-03T03:16:41.957Z,1.63
2022-08-03T03:19:11.284Z,1.65
2022-08-03T03:21:38.573Z,1.85
2022-08-03T03:24:06.671Z,2.00
2022-08-03T03:26:35.347Z,1.55
2022-08-03T03:29:04.096Z,1.98
2022-08-03T03:31:31.064Z,2.22
2022-08-03T03:33:58.552Z,2.00
2022-08-03T03:36:25.230Z,2.30
2022-08-03T03:38:52.034Z,2.13
2022-08-03T03:41:20.608Z,1.88
2022-08-03T03:43:49.648Z,2.28
2022-08-03T03:46:18.499Z,1.65
2022-08-03T03:48:45.165Z,2.08
2022-08-03T03:51:11.958Z,2.15
2022-08-03T03:53:38.604Z,2.05
2022-08-03T03:56:05.372Z,2.08
2022-08-03T03:58:32.975Z,2.15
2022-08-03T04:01:00.412Z,2.08
2022-08-03T04:03:27.267Z,2.17
2022-08-03T04:06:12.641Z,2.10
2022-08-03T04:08:58.981Z,1.70
2022-08-03T04:11:34.465Z,2.45
2022-08-03T04:14:24.459Z,2.30
2022-08-03T04:16:56.532Z,1.90
2022-08-03T04:19:47.223Z,1.92
2022-08-03T04:22:18.777Z,1.90
2022-08-03T04:25:16.789Z,2.10
2022-08-03T04:27:43.902Z,2.05
2022-08-03T04:30:11.564Z,2.22
2022-08-03T04:32:44.123Z,1.77
2022-08-03T04:35:12.575Z,2.03
2022-08-03T04:37:46.033Z,2.35
2022-08-03T04:40:22.923Z,2.22
2022-08-03T04:42:50.938Z,1.80
2022-08-03T04:45:19.300Z,2.10
2022-08-03T04:47:46.731Z,1.98
2022-08-03T04:50:17.040Z,1.83
2022-08-03T04:53:05.111Z,1.55
2022-08-03T04:55:33.167Z,1.58
2022-08-03T04:58:00.759Z,1.52
2022-08-03T05:00:28.220Z,1.83
2022-08-03T05:02:55.311Z,1.50
2022-08-03T05:05:22.903Z,1.75
2022-08-03T05:07:50.121Z,1.75
2022-08-03T05:10:18.185Z,1.40
2022-08-03T05:12:46.123Z,1.75
2022-08-03T05:15:13.201Z,1.70
2022-08-03T05:17:40.149Z,2.15
2022-08-03T05:20:07.358Z,2.15
2022-08-03T05:22:34.054Z,2.05
2022-08-03T05:25:01.961Z,1.80
2022-08-03T05:27:28.752Z,2.03
2022-08-03T05:29:55.372Z,2.15
2022-08-03T05:32:22.253Z,1.98
2022-08-03T05:34:49.115Z,1.73
2022-08-03T05:37:15.798Z,2.08
2022-08-03T05:39:42.453Z,2.30
2022-08-03T05:42:10.562Z,2.10
2022-08-03T05:44:38.711Z,2.35
2022-08-03T05:47:05.911Z,2.17
2022-08-03T05:49:32.638Z,2.38
2022-08-03T05:52:00.379Z,2.63
2022-08-03T05:54:57.483Z,2.65
2022-08-03T05:57:26.168Z,2.58
2022-08-03T05:59:53.968Z,2.00
2022-08-03T06:02:25.840Z,2.22
2022-08-03T06:04:52.408Z,2.45
2022-08-03T06:07:19.073Z,2.67
2022-08-03T06:10:33.385Z,2.22
2022-08-03T06:12:35.879Z,1.95
2022-08-03T06:15:04.407Z,2.80
2022-08-03T06:17:37.577Z,2.70
2022-08-03T06:20:06.045Z,2.25
2022-08-03T06:22:32.694Z,2.67
2022-08-03T06:25:04.001Z,3.03
2022-08-03T06:27:37.372Z,2.58
2022-08-03T06:30:05.496Z,2.45
2022-08-03T06:32:33.591Z,2.20
2022-08-03T06:35:01.048Z,2.38
2022-08-03T06:37:27.642Z,2.17
2022-08-03T06:39:54.864Z,2.75
2022-08-03T06:42:22.652Z,2.90
2022-08-03T06:44:49.779Z,3.03
2022-08-03T06:47:16.360Z,2.42
2022-08-03T06:49:43.038Z,2.08
2022-08-03T06:52:10.051Z,2.22
2022-08-03T06:54:36.814Z,2.25
2022-08-03T06:57:03.839Z,1.95
2022-08-03T07:00:10.938Z,2.40
2022-08-03T07:02:19.761Z,2.25
2022-08-03T07:04:49.443Z,2.35
2022-08-03T07:07:17.272Z,1.80
2022-08-03T07:09:55.700Z,2.40
2022-08-03T07:12:26.451Z,2.00
2022-08-03T07:14:58.054Z,2.13
2022-08-03T07:17:27.177Z,1.73
2022-08-03T07:19:53.832Z,1.70
2022-08-03T07:22:20.533Z,1.65
2022-08-03T07:24:47.705Z,1.55
2022-08-03T07:27:16.662Z,1.45
2022-08-03T07:29:43.466Z,1.65
2022-08-03T07:32:10.222Z,1.30
2022-08-03T07:34:36.918Z,2.08
2022-08-03T07:37:03.984Z,1.15
2022-08-03T07:39:30.732Z,1.30
2022-08-03T07:41:57.448Z,1.25
2022-08-03T07:44:24.085Z,1.40
2022-08-03T07:46:50.845Z,1.08
2022-08-03T07:49:18.736Z,1.27
2022-08-03T07:51:45.464Z,1.75
2022-08-03T07:54:12.078Z,1.10
2022-08-03T07:56:39.400Z,1.30
2022-08-03T07:59:06.115Z,1.00
2022-08-03T08:01:35.852Z,1.38
2022-08-03T08:04:02.629Z,1.08
2022-08-03T08:06:29.292Z,1.42
2022-08-03T08:08:59.548Z,1.83
2022-08-03T08:11:26.213Z,1.15
2022-08-03T08:13:52.832Z,1.70
2022-08-03T08:16:19.503Z,1.50
2022-08-03T08:18:46.142Z,1.27
2022-08-03T08:21:12.803Z,1.17
2022-08-03T08:23:43.238Z,0.98
2022-08-03T08:26:12.813Z,1.38
2022-08-03T08:28:39.514Z,1.25
2022-08-03T08:31:06.612Z,1.33
2022-08-03T08:34:02.537Z,1.50
2022-08-03T08:36:21.564Z,1.80
2022-08-03T08:38:48.277Z,1.48
2022-08-03T08:41:15.588Z,1.30
2022-08-03T08:43:43.497Z,1.33
2022-08-03T08:46:23.229Z,1.00
2022-08-03T08:48:51.655Z,1.40
2022-08-03T08:51:21.054Z,1.25
2022-08-03T08:53:53.664Z,1.40
2022-08-03T08:56:25.283Z,0.75
2022-08-03T08:58:53.659Z,1.15
2022-08-03T09:01:21.670Z,1.25
2022-08-03T09:03:48.691Z,0.98
2022-08-03T09:06:16.052Z,1.33
2022-08-03T09:08:43.390Z,1.17
2022-08-03T09:11:12.063Z,1.10
2022-08-03T09:13:39.340Z,1.38
2022-08-03T09:16:09.780Z,1.05
2022-08-03T09:18:36.584Z,1.08
2022-08-03T09:21:35.483Z,1.10
2022-08-03T09:24:05.727Z,1.10
2022-08-03T09:26:36.008Z,1.05
2022-08-03T09:29:14.754Z,1.63
2022-08-03T09:31:46.999Z,1.48
2022-08-03T09:34:16.520Z,1.30
2022-08-03T09:36:44.880Z,1.20
2022-08-03T09:39:14.152Z,1.30
2022-08-03T09:41:42.510Z,0.90
2022-08-03T09:44:09.514Z,1.10
2022-08-03T09:46:56.327Z,1.30
2022-08-03T09:49:24.296Z,1.00
2022-08-03T09:52:31.675Z,1.27
2022-08-03T09:54:38.314Z,0.85
2022-08-03T09:57:05.088Z,1.40
2022-08-03T09:59:33.503Z,1.73
2022-08-03T10:02:01.720Z,1.48
2022-08-03T10:04:28.749Z,1.38
2022-08-03T10:07:06.420Z,1.13
2022-08-03T10:09:33.304Z,1.23
2022-08-03T10:12:15.887Z,0.95
2022-08-03T10:14:45.659Z,1.10
2022-08-03T10:17:12.896Z,1.05
2022-08-03T10:19:41.106Z,1.42
2022-08-03T10:22:14.646Z,1.48
2022-08-03T10:24:59.159Z,1.20
2022-08-03T10:27:32.328Z,1.13
2022-08-03T10:30:04.151Z,1.45
2022-08-03T10:32:35.732Z,1.15
2022-08-03T10:35:19.700Z,1.55
2022-08-03T10:38:03.406Z,1.48
2022-08-03T10:40:51.131Z,1.42
2022-08-03T10:43:25.957Z,1.20
2022-08-03T10:45:52.917Z,0.90
2022-08-03T10:48:20.524Z,0.93
2022-08-03T10:50:49.642Z,1.42
2022-08-03T10:53:18.644Z,1.00
2022-08-03T10:56:05.798Z,1.30
2022-08-03T10:58:57.738Z,1.48
2022-08-03T11:02:00.431Z,1.05
2022-08-03T11:04:29.767Z,0.82
2022-08-03T11:07:15.654Z,1.25
2022-08-03T11:09:48.424Z,1.23
2022-08-03T11:12:29.973Z,1.25
2022-08-03T11:15:07.376Z,1.00
2022-08-03T11:17:46.117Z,1.20
2022-08-03T11:20:51.106Z,0.98
2022-08-03T11:24:02.850Z,1.40
2022-08-03T11:26:10.622Z,0.82
2022-08-03T11:28:41.598Z,0.82
2022-08-03T11:31:51.686Z,1.02
2022-08-03T11:34:18.795Z,0.75
2022-08-03T11:37:24.604Z,0.98
2022-08-03T11:39:54.342Z,0.70
2022-08-03T11:42:24.244Z,0.93
2022-08-03T11:44:52.361Z,1.13
2022-08-03T11:47:21.103Z,0.95
2022-08-03T11:49:49.955Z,0.75
2022-08-03T11:52:17.822Z,0.80
2022-08-03T11:54:45.003Z,1.38
2022-08-03T11:57:12.270Z,1.08
2022-08-03T11:59:39.052Z,0.70
2022-08-03T12:02:12.482Z,0.70
2022-08-03T12:04:51.587Z,0.88
2022-08-03T12:07:24.438Z,0.55
2022-08-03T12:10:13.636Z,1.00
2022-08-03T12:12:46.346Z,0.88
2022-08-03T12:15:13.723Z,1.10
2022-08-03T12:17:41.349Z,1.55
2022-08-03T12:20:10.213Z,0.70
2022-08-03T12:22:40.614Z,0.75
2022-08-03T12:25:09.735Z,0.70
2022-08-03T12:27:37.197Z,1.25
2022-08-03T12:30:04.590Z,0.80
2022-08-03T12:32:31.535Z,0.70
2022-08-03T12:35:01.382Z,0.93
2022-08-03T12:37:28.942Z,0.82
2022-08-03T12:40:02.854Z,0.77
2022-08-03T12:42:38.257Z,0.90
2022-08-03T12:45:29.039Z,0.77
2022-08-03T12:48:01.530Z,1.02
2022-08-03T12:50:32.177Z,0.57
2022-08-03T12:53:03.638Z,0.70
2022-08-03T12:55:56.353Z,0.80
2022-08-03T12:58:35.612Z,0.40
2022-08-03T13:01:05.170Z,1.10
2022-08-03T13:03:50.156Z,0.75
2022-08-03T13:06:22.795Z,0.60
2022-08-03T13:08:51.174Z,0.75
2022-08-03T13:11:43.474Z,0.70
2022-08-03T13:14:19.544Z,1.00
2022-08-03T13:16:50.398Z,0.55
2022-08-03T13:19:17.228Z,0.60
2022-08-03T13:21:53.384Z,0.82
2022-08-03T13:24:32.458Z,0.70
2022-08-03T13:27:00.440Z,0.70
2022-08-03T13:29:27.104Z,0.77
2022-08-03T13:31:53.773Z,0.65
2022-08-03T13:34:23.726Z,1.13
2022-08-03T13:39:48.085Z,1.00
2022-08-03T13:42:25.822Z,0.45
2022-08-03T13:44:52.505Z,0.75
2022-08-03T13:47:20.213Z,0.70
2022-08-03T13:50:00.542Z,1.27
2022-08-03T13:52:30.501Z,0.73
2022-08-03T13:54:57.265Z,0.82
2022-08-03T13:58:02.725Z,0.98
2022-08-03T14:00:11.805Z,0.65
2022-08-03T14:02:38.728Z,0.77
2022-08-03T14:05:05.964Z,0.63
2022-08-03T14:07:32.670Z,0.70
2022-08-03T14:09:59.733Z,0.43
2022-08-03T14:12:26.457Z,0.65
2022-08-03T14:14:55.954Z,0.57
2022-08-03T14:17:24.824Z,1.08
2022-08-03T14:19:53.055Z,0.60
2022-08-03T14:22:21.562Z,0.93
2022-08-03T14:24:49.403Z,0.70
2022-08-03T14:27:16.661Z,0.93
2022-08-03T14:29:43.383Z,0.65
2022-08-03T14:32:13.067Z,0.60
2022-08-03T14:34:41.175Z,0.63
2022-08-03T14:37:07.954Z,0.60
2022-08-03T14:42:21.847Z,0.68
2022-08-03T14:44:48.616Z,0.73
2022-08-03T14:47:15.569Z,0.50
2022-08-03T14:50:34.299Z,0.60
2022-08-03T14:52:30.442Z,1.10
2022-08-03T14:54:57.783Z,0.70
2022-08-03T14:57:24.633Z,1.17
2022-08-03T14:59:55.855Z,1.00
2022-08-03T15:02:25.027Z,0.77
2022-08-03T15:04:52.422Z,0.52
2022-08-03T15:07:20.557Z,0.40
2022-08-03T15:09:47.540Z,0.82
2022-08-03T15:12:14.309Z,0.50
2022-08-03T15:14:40.984Z,0.55
2022-08-03T15:17:08.006Z,0.55
2022-08-03T15:20:02.915Z,0.50
2022-08-03T15:22:25.386Z,0.75
2022-08-03T15:26:02.178Z,0.68
2022-08-03T15:28:02.829Z,0.70
2022-08-03T15:30:31.327Z,0.70
2022-08-03T15:32:58.016Z,0.50
2022-08-03T15:35:24.878Z,0.47
2022-08-03T15:37:51.587Z,0.55
2022-08-03T15:40:18.510Z,0.57
2022-08-03T15:42:45.107Z,0.47
2022-08-03T15:45:12.038Z,0.68
2022-08-03T15:47:39.557Z,0.60
2022-08-03T15:50:09.593Z,0.40
2022-08-03T15:52:36.578Z,0.52
2022-08-03T15:55:03.930Z,0.88
2022-08-03T15:57:30.608Z,0.70
2022-08-03T15:59:57.227Z,0.75
2022-08-03T16:02:23.925Z,0.60
2022-08-03T16:04:50.692Z,0.45
2022-08-03T16:07:37.514Z,0.60
2022-08-03T16:10:04.810Z,0.82
2022-08-03T16:12:31.360Z,0.60
2022-08-03T16:14:59.255Z,0.90
2022-08-03T16:17:26.068Z,0.55
2022-08-03T16:19:54.855Z,0.45
2022-08-03T16:22:23.055Z,0.57
2022-08-03T16:24:54.432Z,0.45
2022-08-03T16:27:36.954Z,0.40
2022-08-03T16:30:10.768Z,0.40
2022-08-03T16:32:40.603Z,0.70
2022-08-03T16:35:07.808Z,0.50
2022-08-03T16:37:38.601Z,0.40
2022-08-03T16:40:17.250Z,0.60
2022-08-03T16:42:46.954Z,0.50
2022-08-03T16:45:13.966Z,0.70
2022-08-03T16:47:40.731Z,0.63
2022-08-03T16:50:14.236Z,0.60
2022-08-03T16:52:47.465Z,0.40
2022-08-03T16:55:18.453Z,0.70
2022-08-03T16:58:03.338Z,0.60
2022-08-03T17:00:34.058Z,0.60
2022-08-03T17:03:12.807Z,0.70
2022-08-03T17:05:49.825Z,0.43
2022-08-03T17:08:26.889Z,0.55
2022-08-03T17:10:55.728Z,0.60
2022-08-03T17:13:22.462Z,0.50
2022-08-03T17:15:57.835Z,0.45
2022-08-03T17:18:26.951Z,0.38
2022-08-03T17:20:55.967Z,0.40
2022-08-03T17:23:35.519Z,0.40
2022-08-03T17:26:08.903Z,0.40
2022-08-03T17:28:50.012Z,0.45
2022-08-03T17:31:23.097Z,0.60
2022-08-03T17:33:57.984Z,0.45
2022-08-03T17:36:47.477Z,0.50
2022-08-03T17:39:27.071Z,0.70
2022-08-03T17:42:05.214Z,0.32
2022-08-03T17:44:53.011Z,0.73
2022-08-03T17:47:20.065Z,0.80
2022-08-03T17:49:48.462Z,0.68
2022-08-03T17:52:48.486Z,0.77
2022-08-03T17:55:56.317Z,0.50
2022-08-03T17:58:17.711Z,0.55
2022-08-03T18:01:59.214Z,0.68
2022-08-03T18:04:02.575Z,0.60
2022-08-03T18:06:56.228Z,0.45
2022-08-03T18:10:03.937Z,0.45
2022-08-03T18:12:27.670Z,1.00
2022-08-03T18:15:01.202Z,0.40
2022-08-03T18:17:55.201Z,0.73
2022-08-03T18:20:33.157Z,0.40
2022-08-03T18:23:07.670Z,0.43
2022-08-03T18:25:45.353Z,0.57
2022-08-03T18:28:16.567Z,0.77
2022-08-03T18:30:54.424Z,0.75
2022-08-03T18:34:19.088Z,1.02
2022-08-03T18:36:17.898Z,0.70
2022-08-03T18:41:31.891Z,0.70
2022-08-03T18:44:06.613Z,0.82
2022-08-03T18:46:43.325Z,0.80
2022-08-03T18:49:29.149Z,0.80
2022-08-03T18:52:12.186Z,1.15
2022-08-03T18:55:20.787Z,0.80
2022-08-03T18:58:01.052Z,1.10
2022-08-03T19:00:42.394Z,1.10
2022-08-03T19:03:23.786Z,0.50
2022-08-03T19:06:13.294Z,0.70
2022-08-03T19:08:49.496Z,0.70
2022-08-03T19:12:14.534Z,0.70
2022-08-03T19:14:29.482Z,0.60
2022-08-03T19:17:05.680Z,0.70
2022-08-03T19:19:43.907Z,0.88
2022-08-03T19:22:16.337Z,0.70
2022-08-03T19:24:46.237Z,0.65
2022-08-03T19:27:13.569Z,0.80
2022-08-03T19:29:58.443Z,0.93
2022-08-03T19:32:30.927Z,0.80
2022-08-03T19:34:59.834Z,1.05
2022-08-03T19:37:38.355Z,1.00
2022-08-03T19:40:10.439Z,0.80
2022-08-03T19:42:45.111Z,0.68
2022-08-03T19:45:17.079Z,0.82
2022-08-03T19:47:56.367Z,1.27
2022-08-03T19:50:25.253Z,0.88
2022-08-03T19:52:52.822Z,0.75
2022-08-03T19:55:20.149Z,1.17
2022-08-03T19:57:49.296Z,0.60
2022-08-03T20:00:19.702Z,0.63
2022-08-03T20:02:47.401Z,0.90
2022-08-03T20:05:18.319Z,1.25
2022-08-03T20:07:47.764Z,0.60
2022-08-03T20:10:17.313Z,1.13
2022-08-03T20:12:45.772Z,0.68
2022-08-03T20:15:13.058Z,0.90
2022-08-03T20:17:56.309Z,0.98
2022-08-03T20:20:31.378Z,0.88
2022-08-03T20:23:00.071Z,0.82
2022-08-03T20:25:38.920Z,0.98
2022-08-03T20:31:01.926Z,1.13
2022-08-03T20:33:46.083Z,0.80
2022-08-03T20:39:02.104Z,0.60
2022-08-03T20:41:35.361Z,0.82
2022-08-03T20:44:02.129Z,1.50
2022-08-03T20:46:40.627Z,0.98
2022-08-03T20:49:19.993Z,0.80
2022-08-03T20:51:53.201Z,0.90
2022-08-03T20:54:30.611Z,0.60
2022-08-03T20:57:03.710Z,1.10
2022-08-03T20:59:47.162Z,1.10
2022-08-03T21:02:19.882Z,0.70
2022-08-03T21:05:03.604Z,1.05
2022-08-03T21:08:05.139Z,0.90
2022-08-03T21:10:38.526Z,1.10
2022-08-03T21:13:06.982Z,1.20
2022-08-03T21:13:12.284Z,1.00
2022-08-03T21:13:18.847Z,0.98
2022-08-03T21:16:06.755Z,1.23
2022-08-03T21:18:49.387Z,0.98
2022-08-03T21:21:18.688Z,1.15
2022-08-03T21:23:50.135Z,1.00
2022-08-03T21:26:19.663Z,0.85
2022-08-03T21:28:52.726Z,1.27
2022-08-03T21:31:24.837Z,0.85
2022-08-03T21:34:01.284Z,0.90
2022-08-03T21:38:57.487Z,0.95
2022-08-03T21:41:30.245Z,0.82
2022-08-03T21:43:57.996Z,0.88
2022-08-03T21:46:26.484Z,0.90
2022-08-03T21:50:05.503Z,1.50
2022-08-03T21:51:44.299Z,0.70
2022-08-03T21:54:12.479Z,0.80
2022-08-03T21:56:43.324Z,0.90
2022-08-03T21:59:16.936Z,1.08
2022-08-03T22:01:45.510Z,1.00
2022-08-03T22:04:50.337Z,1.23
2022-08-03T22:07:06.732Z,0.90
2022-08-03T22:09:35.192Z,0.68
2022-08-03T22:12:01.847Z,1.25
2022-08-03T22:14:29.766Z,1.17
2022-08-03T22:16:56.626Z,1.02
2022-08-03T22:19:23.307Z,0.85
2022-08-03T22:21:50.532Z,0.80
2022-08-03T22:24:24.000Z,0.98
2022-08-03T22:27:09.774Z,0.90
2022-08-03T22:32:03.504Z,0.80
2022-08-03T22:34:30.363Z,0.80
2022-08-03T22:37:03.318Z,0.90
2022-08-03T22:39:30.535Z,0.70
2022-08-03T22:41:58.913Z,1.00
2022-08-03T22:44:26.741Z,1.10
2022-08-03T22:46:53.996Z,1.10
2022-08-03T22:49:22.105Z,0.75
2022-08-03T22:51:51.545Z,0.63
2022-08-03T22:54:19.225Z,0.80
2022-08-03T22:56:46.998Z,0.77
2022-08-03T22:59:41.408Z,0.75
2022-08-03T23:02:20.230Z,0.80
2022-08-03T23:04:54.834Z,0.73
2022-08-03T23:07:37.123Z,1.08
2022-08-03T23:10:11.037Z,0.80
2022-08-03T23:12:39.918Z,1.27
2022-08-03T23:15:09.438Z,0.77
2022-08-03T23:17:57.815Z,1.00
2022-08-03T23:20:26.433Z,1.10
2022-08-03T23:22:55.138Z,0.85
2022-08-03T23:25:22.662Z,0.90
2022-08-03T23:28:05.027Z,1.38
2022-08-03T23:30:37.189Z,1.00
2022-08-03T23:33:04.438Z,1.25
2022-08-03T23:36:20.178Z,1.30
2022-08-03T23:38:36.932Z,0.90
2022-08-03T23:41:04.750Z,1.10
2022-08-03T23:43:52.293Z,1.48
2022-08-03T23:46:22.222Z,1.10
2022-08-03T23:48:49.767Z,1.27
2022-08-03T23:51:27.670Z,0.88
2022-08-03T23:54:03.290Z,1.38
2022-08-03T23:56:58.705Z,1.20
2022-08-03T23:59:35.664Z,0.80
